Time;durP1;ratioP1;P1;durP2;ratioP2;P2;SDS_P1;SDS_P2;PMS_P1;PMS_P2;Temp;Humidity;BMP_temperature;BMP_pressure;BME280_temperature;BME280_humidity;BME280_pressure;Samples;Min_cycle;Max_cycle;Signal;HPM_P1;HPM_P2
2022/04/15 00:00:36;;;;;;;23.35;15.13;;;17.40;58.90;;;13.81;74.13;95951.22;5013843;28;20137;-56
2022/04/15 00:03:06;;;;;;;23.38;15.02;;;17.40;58.90;;;13.76;74.25;95944.03;5013832;28;20029;-57
2022/04/15 00:05:40;;;;;;;21.73;16.08;;;17.40;58.90;;;13.75;74.29;95937.03;5013768;28;20088;-58
2022/04/15 00:08:13;;;;;;;27.35;17.75;;;17.40;58.90;;;13.71;74.70;95946.72;5029861;28;20084;-56
2022/04/15 00:10:45;;;;;;;28.98;17.25;;;17.40;59.10;;;13.71;75.65;95951.28;5013727;28;20041;-59
2022/04/15 00:13:12;;;;;;;21.08;15.32;;;17.30;59.10;;;13.69;75.34;95942.69;5014395;28;20040;-58
2022/04/15 00:15:39;;;;;;;20.27;15.38;;;17.30;59.00;;;13.67;75.61;95948.34;5013717;28;20089;-57
2022/04/15 00:18:08;;;;;;;22.60;15.63;;;17.30;59.10;;;13.61;75.48;95950.25;5014833;28;20030;-57
2022/04/15 00:20:40;;;;;;;23.90;15.15;;;17.30;59.30;;;13.58;75.36;95952.66;5014898;28;20034;-58
2022/04/15 00:23:05;;;;;;;26.58;15.98;;;17.30;59.30;;;13.57;75.65;95951.88;5014775;28;20101;-59
2022/04/15 00:25:37;;;;;;;24.65;15.30;;;17.20;59.20;;;13.58;75.78;95958.81;5014336;28;20153;-56
2022/04/15 00:28:03;;;;;;;22.77;16.20;;;17.20;59.50;;;13.57;76.20;95962.56;5014712;28;20516;-58
2022/04/15 00:30:38;;;;;;;23.52;16.42;;;17.20;59.30;;;13.53;75.74;95952.69;5014006;28;20040;-57
2022/04/15 00:33:07;;;;;;;23.85;15.65;;;17.20;59.50;;;13.52;75.94;95959.91;5000075;28;20033;-58
2022/04/15 00:35:39;;;;;;;21.13;15.52;;;17.20;59.40;;;13.52;76.28;95956.44;5014216;28;20048;-58
2022/04/15 00:38:05;;;;;;;22.55;15.57;;;17.20;59.60;;;13.48;76.76;95958.06;5014254;28;20108;-58
2022/04/15 00:40:31;;;;;;;22.08;15.60;;;17.10;59.50;;;13.45;76.63;95953.25;5014288;28;20026;-59
2022/04/15 00:43:00;;;;;;;23.00;15.77;;;17.10;59.60;;;13.42;77.00;95959.94;5013103;28;20034;-58
2022/04/15 00:45:26;;;;;;;23.75;15.77;;;17.10;59.90;;;13.39;76.77;95958.63;5014217;28;20123;-59
2022/04/15 00:47:57;;;;;;;19.45;15.23;;;17.00;60.00;;;13.38;77.21;95953.53;5014169;28;20045;-58
2022/04/15 00:50:36;;;;;;;22.23;16.65;;;17.00;60.20;;;13.36;77.77;95955.69;5013967;28;20049;-58
2022/04/15 00:53:09;;;;;;;20.52;15.25;;;17.00;60.40;;;13.31;77.65;95959.16;5012859;28;20121;-59
2022/04/15 00:55:40;;;;;;;24.08;15.90;;;17.00;60.60;;;13.30;77.45;95960.25;5012906;28;20140;-59
2022/04/15 00:58:10;;;;;;;23.70;15.80;;;16.90;60.60;;;13.23;77.44;95965.06;5013928;28;20442;-58
2022/04/15 01:00:37;;;;;;;25.33;16.85;;;16.90;60.70;;;13.20;78.48;95957.59;5012819;28;20080;-59
2022/04/15 01:03:05;;;;;;;22.38;16.05;;;16.90;60.70;;;13.15;78.30;95960.25;5012422;28;20079;-56
2022/04/15 01:05:31;;;;;;;20.08;15.15;;;16.80;60.80;;;13.07;78.48;95960.84;4996776;28;20085;-48
2022/04/15 01:08:03;;;;;;;23.27;14.52;;;16.80;61.00;;;13.01;78.62;95962.72;5012870;28;20033;-48
2022/04/15 01:10:29;;;;;;;23.58;15.35;;;16.70;61.30;;;12.95;79.16;95947.75;5013827;28;20040;-49
2022/04/15 01:12:59;;;;;;;32.15;17.23;;;16.60;61.40;;;12.85;79.48;95948.56;5012417;28;20030;-49
2022/04/15 01:15:27;;;;;;;23.63;16.33;;;16.60;61.60;;;12.85;79.99;95953.09;5012226;28;20034;-51
2022/04/15 01:17:56;;;;;;;24.95;17.23;;;16.50;61.70;;;12.79;79.92;95956.88;5013580;28;20476;-54
2022/04/15 01:20:22;;;;;;;23.65;16.33;;;16.50;61.90;;;12.72;80.51;95957.09;5012365;28;20038;-49
2022/04/15 01:23:10;;;;;;;23.48;17.05;;;16.40;62.00;;;12.74;80.78;95957.66;5012356;28;20038;-51
2022/04/15 01:25:38;;;;;;;25.60;17.63;;;16.40;62.40;;;12.71;80.79;95955.50;5012722;28;20492;-48
2022/04/15 01:28:05;;;;;;;25.98;18.00;;;16.40;62.30;;;12.71;80.85;95955.50;5012146;28;20066;-52
2022/04/15 01:30:32;;;;;;;22.80;16.27;;;16.40;62.50;;;12.66;80.74;95953.66;5012256;28;20103;-49
2022/04/15 01:33:02;;;;;;;23.67;16.48;;;16.40;62.80;;;12.63;80.84;95966.72;5013238;28;20026;-51
2022/04/15 01:35:37;;;;;;;21.45;15.10;;;16.30;63.10;;;12.65;80.90;95967.28;5013222;28;20025;-53
2022/04/15 01:38:10;;;;;;;21.23;14.75;;;16.30;63.40;;;12.62;80.35;95965.13;5012358;28;20065;-49
2022/04/15 01:40:38;;;;;;;22.08;14.88;;;16.30;63.20;;;12.67;79.99;95968.63;5011973;28;20057;-50
2022/04/15 01:43:07;;;;;;;23.38;14.93;;;16.30;63.10;;;12.69;80.04;95963.81;5012841;28;20030;-49
2022/04/15 01:45:39;;;;;;;23.10;15.70;;;16.30;63.10;;;12.67;79.85;95963.28;5013119;28;20032;-56
2022/04/15 01:48:08;;;;;;;25.90;14.87;;;16.30;63.20;;;12.65;79.95;95967.28;5012065;28;20109;-52
2022/04/15 01:50:35;;;;;;;20.08;14.05;;;16.30;63.00;;;12.64;79.65;95973.69;4995747;28;20033;-49
2022/04/15 01:53:07;;;;;;;21.45;14.77;;;16.30;62.90;;;12.64;79.42;95969.16;5011556;28;20519;-51
2022/04/15 01:55:37;;;;;;;21.60;14.60;;;16.30;63.00;;;12.60;79.31;95975.31;5012939;28;20136;-51
2022/04/15 01:58:09;;;;;;;24.80;14.23;;;16.30;62.90;;;12.58;79.03;95969.44;5012928;28;20496;-51
2022/04/15 02:00:37;;;;;;;21.42;13.85;;;16.30;63.00;;;12.59;79.20;95968.34;5012959;28;20040;-53
2022/04/15 02:03:03;;;;;;;18.27;14.55;;;16.30;63.00;;;12.59;78.83;95976.38;5012728;28;20045;-49
2022/04/15 02:05:35;;;;;;;21.58;14.15;;;16.30;62.90;;;12.57;78.18;95968.63;5012416;28;20058;-51
2022/04/15 02:08:04;;;;;;;19.65;14.18;;;16.20;62.90;;;12.60;78.46;95968.09;5011600;28;20109;-49
2022/04/15 02:10:53;;;;;;;20.67;14.15;;;16.20;62.90;;;12.56;78.99;95974.22;5011666;28;20025;-49
2022/04/15 02:13:21;;;;;;;22.00;12.98;;;16.20;63.10;;;12.50;78.94;95968.91;5011381;28;20034;-51
2022/04/15 02:15:47;;;;;;;18.65;13.13;;;16.20;62.80;;;12.45;78.55;95968.88;5011409;28;20095;-53
2022/04/15 02:18:13;;;;;;;22.05;14.40;;;16.10;62.60;;;12.37;79.01;95972.06;5012584;28;20065;-50
2022/04/15 02:20:39;;;;;;;26.30;15.18;;;16.10;62.70;;;12.36;78.85;95969.69;5011332;28;20117;-49
2022/04/15 02:23:08;;;;;;;23.10;14.85;;;16.00;62.70;;;12.26;79.31;95973.16;5012702;28;20114;-50
2022/04/15 02:25:49;;;;;;;21.92;13.45;;;16.00;62.80;;;12.19;79.62;95975.25;5027691;28;20034;-48
2022/04/15 02:28:14;;;;;;;20.05;13.93;;;15.90;63.00;;;12.15;79.69;95979.53;5012430;28;20034;-49
2022/04/15 02:30:47;;;;;;;20.50;13.40;;;15.90;62.90;;;12.13;79.60;95984.34;5011015;28;20034;-49
2022/04/15 02:33:16;;;;;;;20.27;13.63;;;15.80;63.00;;;12.13;79.48;95989.69;4993798;28;20045;-49
2022/04/15 02:35:44;;;;;;;17.83;13.07;;;15.80;62.90;;;12.12;79.55;95988.06;5012391;28;20041;-50
2022/04/15 02:38:13;;;;;;;22.85;13.90;;;15.80;63.00;;;12.14;79.88;95984.06;5011404;28;20034;-52
2022/04/15 02:40:39;;;;;;;19.10;13.65;;;15.90;63.20;;;12.16;79.94;95981.94;5011150;28;20424;-50
2022/04/15 02:43:06;;;;;;;19.05;13.75;;;15.80;63.10;;;12.18;79.64;95984.34;5012287;28;20030;-49
2022/04/15 02:45:35;;;;;;;20.88;13.73;;;15.90;63.30;;;12.17;80.28;95978.19;5011172;28;20543;-51
2022/04/15 02:48:01;;;;;;;20.25;13.07;;;15.90;63.40;;;12.21;79.76;95976.59;4994868;28;20042;-53
2022/04/15 02:50:33;;;;;;;21.85;15.10;;;15.90;63.30;;;12.22;79.84;95972.06;5011048;28;20066;-50
2022/04/15 02:53:08;;;;;;;19.85;13.77;;;15.90;63.30;;;12.16;80.55;95960.59;4994783;28;20025;-50
2022/04/15 02:55:40;;;;;;;21.30;14.45;;;15.90;63.50;;;12.14;80.64;95960.03;5013616;28;20515;-50
2022/04/15 02:58:09;;;;;;;22.92;14.98;;;15.90;63.60;;;11.99;81.42;95962.69;5015030;28;20030;-52
2022/04/15 03:00:44;;;;;;;26.50;16.70;;;15.80;63.60;;;11.93;80.99;95956.50;5016236;28;20030;-53
2022/04/15 03:03:13;;;;;;;25.88;15.40;;;15.80;64.20;;;11.99;81.05;95957.34;5031324;28;20496;-50
2022/04/15 03:05:39;;;;;;;20.00;14.40;;;15.80;64.10;;;12.02;80.62;95960.28;5014532;28;20515;-49
2022/04/15 03:08:06;;;;;;;20.75;14.52;;;15.70;64.00;;;11.97;80.94;95957.63;5015790;28;20523;-51
2022/04/15 03:10:35;;;;;;;21.83;14.15;;;15.60;63.90;;;11.84;81.63;95960.72;5014886;28;20088;-52
2022/04/15 03:13:07;;;;;;;22.23;15.00;;;15.60;64.20;;;11.87;81.04;95970.91;5014607;28;20030;-51
2022/04/15 03:15:33;;;;;;;22.25;15.30;;;15.60;64.30;;;11.86;81.33;95974.66;5015908;28;20027;-54
2022/04/15 03:18:02;;;;;;;23.77;14.20;;;15.60;64.20;;;11.80;81.94;95967.66;5015838;28;20040;-49
2022/04/15 03:20:30;;;;;;;20.08;13.95;;;15.60;64.30;;;11.83;81.68;95972.47;5014681;28;20042;-53
2022/04/15 03:22:56;;;;;;;22.88;15.18;;;15.50;64.30;;;11.82;81.61;95960.22;5015745;28;20033;-50
2022/04/15 03:25:22;;;;;;;20.20;14.05;;;15.60;64.30;;;11.80;82.33;95973.81;5015663;28;20060;-47
2022/04/15 03:27:54;;;;;;;23.42;14.60;;;15.50;64.30;;;11.77;82.35;95969.00;5013483;28;20507;-49
2022/04/15 03:30:19;;;;;;;24.10;14.25;;;15.60;64.60;;;11.81;82.10;95978.09;5014674;28;20221;-53
2022/04/15 03:32:51;;;;;;;25.17;14.57;;;15.60;64.40;;;11.84;81.64;95983.97;5015697;28;20122;-49
2022/04/15 03:35:20;;;;;;;23.98;14.57;;;15.60;64.60;;;11.84;81.75;95978.63;5014492;28;20037;-53
2022/04/15 03:37:52;;;;;;;27.65;15.07;;;15.60;64.60;;;11.84;81.55;95974.06;5009975;28;20370;-48
2022/04/15 03:40:22;;;;;;;21.13;15.02;;;15.60;64.80;;;11.71;82.27;95964.69;5013577;28;20033;-50
2022/04/15 03:42:56;;;;;;;20.50;13.57;;;15.60;64.60;;;11.80;81.76;95979.16;5013446;28;20033;-48
2022/04/15 03:45:28;;;;;;;21.65;14.55;;;15.60;64.70;;;11.82;81.49;95987.69;5010559;28;20384;-48
2022/04/15 03:47:54;;;;;;;26.55;15.63;;;15.60;64.70;;;11.80;81.58;95987.16;5014296;28;20034;-48
2022/04/15 03:50:21;;;;;;;28.25;15.65;;;15.60;64.50;;;11.79;81.47;95984.75;5014451;28;20040;-48
2022/04/15 03:52:59;;;;;;;22.40;14.77;;;15.60;64.60;;;11.77;82.40;95984.22;5013224;28;20060;-49
2022/04/15 03:55:25;;;;;;;23.75;15.35;;;15.60;64.90;;;11.75;82.52;95989.81;5014417;28;20028;-48
2022/04/15 03:57:51;;;;;;;23.33;14.82;;;15.60;64.70;;;11.70;82.38;95986.31;5013854;28;20037;-48
2022/04/15 04:00:24;;;;;;;25.08;15.73;;;15.60;64.80;;;11.69;82.10;95992.72;5013024;28;20065;-54
2022/04/15 04:02:59;;;;;;;23.80;15.32;;;15.60;65.00;;;11.66;82.32;95993.22;5004146;28;20447;-50
2022/04/15 04:05:28;;;;;;;24.90;15.07;;;15.50;65.00;;;11.62;82.14;95992.16;5013590;28;20049;-49
2022/04/15 04:07:53;;;;;;;21.65;14.20;;;15.50;64.90;;;11.62;82.25;95997.50;5013823;28;20057;-52
2022/04/15 04:10:22;;;;;;;21.95;14.60;;;15.50;64.90;;;11.61;81.98;95996.69;5014005;28;20034;-49
2022/04/15 04:12:58;;;;;;;21.58;14.73;;;15.50;64.90;;;11.58;82.06;95990.00;5012782;28;20038;-53
2022/04/15 04:15:31;;;;;;;22.95;13.93;;;15.50;65.00;;;11.54;82.31;95993.47;5013984;28;20057;-50
2022/04/15 04:18:14;;;;;;;24.00;14.85;;;15.50;65.00;;;11.44;82.60;95993.41;5012214;28;20028;-49
2022/04/15 04:20:42;;;;;;;;;;;15.40;65.20;;;11.38;82.55;96000.59;5014234;28;20034;-52
2022/04/15 04:23:08;;;;;;;22.10;15.38;;;15.30;64.50;;;11.31;82.36;96005.34;5013744;28;20431;-51
2022/04/15 04:25:37;;;;;;;18.33;13.27;;;15.30;64.90;;;11.26;82.56;96006.13;5013911;28;20153;-50
2022/04/15 04:28:09;;;;;;;23.25;14.10;;;15.20;65.20;;;11.26;82.73;96008.00;5009972;28;20022;-51
2022/04/15 04:30:38;;;;;;;20.75;14.38;;;15.10;65.30;;;11.22;82.79;96012.22;5013821;28;20022;-47
2022/04/15 04:33:07;;;;;;;21.15;13.70;;;15.10;65.40;;;11.17;82.42;96013.00;5013703;28;20430;-53
2022/04/15 04:35:33;;;;;;;25.00;15.07;;;15.10;65.40;;;11.04;83.04;96014.25;5006352;28;20081;-53
2022/04/15 04:37:58;;;;;;;22.10;14.45;;;15.00;65.50;;;10.98;83.37;96012.63;5013181;28;20366;-49
2022/04/15 04:40:27;;;;;;;21.00;14.80;;;15.00;65.70;;;10.95;83.74;96015.00;5012282;28;20062;-49
2022/04/15 04:42:56;;;;;;;26.00;15.18;;;14.90;66.00;;;10.97;83.93;96018.19;5013434;28;20065;-52
2022/04/15 04:45:28;;;;;;;21.52;14.50;;;14.80;66.20;;;10.99;84.13;96022.22;5012068;28;20113;-53
2022/04/15 04:48:00;;;;;;;24.25;15.18;;;14.80;66.50;;;11.06;83.81;96014.81;5011911;28;20056;-51
2022/04/15 04:50:28;;;;;;;22.45;14.00;;;14.90;66.70;;;11.15;83.70;96024.97;5012154;28;20042;-50
2022/04/15 04:52:59;;;;;;;23.85;14.20;;;14.90;66.60;;;11.20;83.51;96025.03;5013311;28;20496;-51
2022/04/15 04:55:28;;;;;;;28.27;13.82;;;14.90;66.90;;;11.23;83.21;96022.63;5013163;28;20030;-48
2022/04/15 04:57:57;;;;;;;25.10;15.32;;;14.90;66.60;;;11.25;83.47;96019.69;5012904;28;20059;-50
2022/04/15 05:00:29;;;;;;;18.60;14.23;;;15.00;66.80;;;11.24;83.31;96020.78;5011712;28;20022;-49
2022/04/15 05:02:55;;;;;;;22.95;14.80;;;15.00;66.60;;;11.19;83.69;96013.56;5015046;28;20025;-50
2022/04/15 05:05:49;;;;;;;26.58;15.82;;;15.00;66.60;;;11.20;84.10;96030.34;5032334;28;20096;-49
2022/04/15 05:08:23;;;;;;;21.02;14.60;;;15.00;66.80;;;11.27;84.30;96026.38;5032185;28;20029;-51
2022/04/15 05:10:49;;;;;;;24.42;16.00;;;15.00;66.90;;;11.33;84.49;96033.34;5032428;28;20499;-50
2022/04/15 05:13:15;;;;;;;24.50;15.65;;;15.10;67.00;;;11.37;84.80;96028.31;5016228;28;20040;-50
2022/04/15 05:15:47;;;;;;;23.58;15.73;;;15.10;67.20;;;11.43;84.90;96034.47;5012999;28;20049;-50
2022/04/15 05:18:14;;;;;;;23.90;17.55;;;15.20;67.40;;;11.54;84.72;96044.16;5011654;28;20040;-53
2022/04/15 05:20:40;;;;;;;23.73;16.63;;;15.30;67.30;;;11.62;84.63;96042.84;5012789;28;20040;-50
2022/04/15 05:23:06;;;;;;;24.17;16.80;;;15.40;67.30;;;11.68;84.56;96042.59;5005256;28;20417;-48
2022/04/15 05:25:31;;;;;;;24.83;15.45;;;15.50;67.30;;;11.75;84.33;96045.88;5011809;28;20105;-48
2022/04/15 05:27:58;;;;;;;22.77;16.13;;;15.50;67.30;;;11.77;84.16;96029.56;5014721;28;20036;-50
2022/04/15 05:30:29;;;;;;;26.50;16.85;;;15.60;67.30;;;11.88;83.93;96043.81;5017969;28;20030;-48
2022/04/15 05:32:55;;;;;;;24.08;16.13;;;15.70;67.30;;;11.94;84.11;96045.41;5015562;28;20030;-50
2022/04/15 05:35:21;;;;;;;24.00;16.48;;;15.80;67.30;;;12.02;83.97;96051.06;5013293;28;20028;-50
2022/04/15 05:37:47;;;;;;;24.35;15.70;;;15.80;67.20;;;12.09;83.67;96056.16;4998859;28;20424;-51
2022/04/15 05:40:12;;;;;;;23.63;15.23;;;15.90;67.10;;;12.17;83.08;96050.31;5018835;28;20029;-51
2022/04/15 05:42:38;;;;;;;21.33;15.65;;;16.00;66.90;;;12.25;83.05;96054.31;4968086;28;20112;-49
2022/04/15 05:45:05;;;;;;;25.23;15.93;;;16.10;66.80;;;12.32;82.73;96060.22;5011291;28;20084;-50
2022/04/15 05:47:31;;;;;;;31.45;16.38;;;16.20;66.70;;;12.41;82.49;96060.50;5009197;28;20034;-51
2022/04/15 05:49:58;;;;;;;24.20;15.40;;;16.30;66.40;;;12.46;82.08;96064.00;4984764;28;20030;-57
2022/04/15 05:52:24;;;;;;;22.80;15.23;;;16.40;66.30;;;12.52;81.98;96064.00;5002283;28;20033;-53
2022/04/15 05:54:50;;;;;;;23.15;15.18;;;16.50;66.10;;;12.60;81.74;96068.84;5012004;28;20025;-48
2022/04/15 05:57:16;;;;;;;20.63;14.30;;;16.60;66.00;;;12.65;81.69;96066.97;5011351;28;20022;-53
2022/04/15 05:59:41;;;;;;;23.13;14.38;;;16.70;65.80;;;12.75;81.51;96068.84;5020055;28;20053;-48
2022/04/15 06:02:07;;;;;;;19.23;14.18;;;16.80;65.60;;;12.80;80.73;96076.06;5010697;28;20022;-48
2022/04/15 06:04:33;;;;;;;18.92;13.63;;;16.80;65.40;;;12.87;80.53;96073.94;5009120;28;20096;-49
2022/04/15 06:07:08;;;;;;;19.33;13.68;;;16.90;65.30;;;12.93;80.17;96075.53;4996605;28;20545;-51
2022/04/15 06:09:34;;;;;;;19.23;13.27;;;17.00;65.10;;;12.99;79.77;96082.50;4989914;28;20030;-50
2022/04/15 06:12:10;;;;;;;18.33;12.30;;;17.10;64.90;;;13.04;79.90;96087.06;5027217;28;20060;-49
2022/04/15 06:14:39;;;;;;;18.27;13.88;;;17.20;64.80;;;13.13;79.80;96088.94;5013977;28;20033;-48
2022/04/15 06:17:07;;;;;;;18.55;13.70;;;17.20;64.60;;;13.19;79.46;96092.38;5031466;28;20109;-49
2022/04/15 06:19:36;;;;;;;18.75;12.27;;;17.20;64.50;;;13.18;78.66;96083.56;5031624;28;20025;-48
2022/04/15 06:22:02;;;;;;;17.42;12.52;;;17.30;65.20;;;13.17;78.62;96081.97;5031532;28;20037;-50
2022/04/15 06:24:27;;;;;;;21.10;13.73;;;17.30;64.10;;;13.20;79.17;96083.31;5031780;28;20038;-48
2022/04/15 06:26:53;;;;;;;23.35;14.93;;;17.40;64.10;;;13.25;79.39;96094.00;5031164;28;20365;-50
2022/04/15 06:29:25;;;;;;;18.13;14.32;;;17.40;64.00;;;13.29;79.40;96089.75;5020538;28;20058;-49
2022/04/15 06:31:57;;;;;;;20.45;14.32;;;17.40;64.10;;;13.32;79.39;96093.75;5027148;28;20038;-50
2022/04/15 06:34:29;;;;;;;19.83;14.25;;;17.40;64.10;;;13.38;79.19;96092.66;5011621;28;20062;-48
2022/04/15 06:36:55;;;;;;;;;;;17.40;64.10;;;13.40;79.16;96093.19;5011902;28;20493;-49
2022/04/15 06:39:27;;;;;;;25.73;14.10;;;17.40;63.70;;;13.42;79.24;96093.75;5010334;28;19971;-49
2022/04/15 06:41:53;;;;;;;20.48;14.30;;;17.50;63.80;;;13.45;79.05;96092.41;5011871;28;20514;-51
2022/04/15 06:44:21;;;;;;;20.38;13.20;;;17.40;63.70;;;13.45;78.54;96087.84;5011601;28;20117;-52
2022/04/15 06:46:47;;;;;;;18.65;12.73;;;17.50;63.80;;;13.40;78.05;96087.84;5011234;28;20056;-52
2022/04/15 06:49:15;;;;;;;18.98;13.63;;;17.50;63.60;;;13.38;78.50;96092.66;5013868;28;20026;-48
2022/04/15 06:51:43;;;;;;;18.58;12.30;;;17.50;63.60;;;13.36;78.30;96100.16;5031322;28;20083;-48
2022/04/15 06:54:09;;;;;;;17.95;12.73;;;17.50;63.50;;;13.44;78.65;96091.59;5031103;28;20115;-48
2022/04/15 06:56:35;;;;;;;17.52;12.70;;;17.60;63.50;;;13.50;78.22;96100.41;4989370;28;20050;-59
2022/04/15 06:59:01;;;;;;;17.08;12.00;;;17.70;63.30;;;13.55;77.87;96093.19;4994111;28;20049;-55
2022/04/15 07:01:29;;;;;;;14.57;11.13;;;17.70;63.10;;;13.60;77.50;96095.03;5010268;28;20026;-51
2022/04/15 07:03:55;;;;;;;17.20;11.20;;;17.80;62.90;;;13.62;77.10;96093.69;4998285;28;20038;-53
2022/04/15 07:06:20;;;;;;;17.45;11.35;;;17.90;62.70;;;13.67;76.95;96095.56;5033243;23;20056;-55
2022/04/15 07:08:46;;;;;;;15.38;11.43;;;17.90;62.50;;;13.63;76.72;96091.81;4973854;28;20403;-56
2022/04/15 07:11:14;;;;;;;17.33;10.98;;;18.00;62.30;;;13.76;76.65;96104.66;5034602;28;20055;-55
2022/04/15 07:13:39;;;;;;;18.35;10.88;;;18.10;62.20;;;13.85;75.88;96100.34;5027840;28;20480;-58
2022/04/15 07:16:05;;;;;;;16.35;11.73;;;18.20;61.90;;;13.88;75.41;96107.00;5031501;28;20036;-58
2022/04/15 07:18:31;;;;;;;18.65;12.32;;;18.30;61.60;;;13.95;75.39;96110.22;5031800;28;20029;-55
2022/04/15 07:20:56;;;;;;;17.05;11.80;;;18.40;61.40;;;14.06;75.41;96105.63;5014236;28;20066;-56
2022/04/15 07:23:22;;;;;;;16.83;11.63;;;18.50;61.20;;;14.21;74.93;96100.22;5012702;28;20067;-56
2022/04/15 07:25:48;;;;;;;15.60;11.85;;;18.70;60.90;;;14.37;74.58;96113.53;5030510;28;20403;-57
2022/04/15 07:28:14;;;;;;;16.75;12.02;;;18.90;60.60;;;14.40;74.30;96105.75;5012503;28;20021;-56
2022/04/15 07:30:39;;;;;;;17.42;12.32;;;19.10;60.20;;;14.49;73.99;96111.34;5017852;28;20021;-57
2022/04/15 07:33:11;;;;;;;18.17;11.98;;;19.20;60.00;;;14.31;73.88;96107.41;5030717;28;20404;-56
2022/04/15 07:35:36;;;;;;;17.17;12.38;;;19.40;59.50;;;14.33;74.70;96107.94;5045469;28;20144;-56
2022/04/15 07:38:08;;;;;;;16.67;12.10;;;19.50;59.20;;;14.43;74.71;96101.72;5030905;28;20555;-58
2022/04/15 07:40:36;;;;;;;18.88;12.63;;;19.60;58.90;;;14.54;74.09;96097.91;5031797;28;20472;-57
2022/04/15 07:43:02;;;;;;;15.75;11.18;;;19.80;58.60;;;14.69;72.69;96103.19;5034293;28;20029;-58
2022/04/15 07:45:32;;;;;;;19.13;11.57;;;20.00;58.20;;;15.00;72.47;96095.75;4987999;28;20058;-55
2022/04/15 07:48:01;;;;;;;17.27;11.13;;;20.30;57.90;;;15.19;71.18;96101.22;5006888;28;20034;-57
2022/04/15 07:50:31;;;;;;;15.13;11.27;;;20.60;57.30;;;15.20;70.28;96102.06;5030286;28;20396;-57
2022/04/15 07:52:59;;;;;;;14.30;11.40;;;21.00;56.50;;;15.26;71.23;96101.72;5033734;28;20025;-56
2022/04/15 07:55:31;;;;;;;15.90;11.60;;;21.20;55.90;;;15.53;70.64;96100.41;5010495;28;20022;-57
2022/04/15 07:57:56;;;;;;;16.33;11.63;;;21.30;55.80;;;15.59;70.08;96107.31;5049418;28;20096;-58
2022/04/15 08:00:23;;;;;;;12.82;11.48;;;21.30;55.40;;;15.63;69.79;96104.88;5016417;28;20383;-57
2022/04/15 08:03:01;;;;;;;17.90;12.68;;;21.40;55.20;;;15.54;69.25;96095.81;5039008;28;20033;-58
2022/04/15 08:05:26;;;;;;;20.05;12.63;;;21.50;54.70;;;15.67;69.24;96114.81;5028262;28;20056;-57
2022/04/15 08:08:01;;;;;;;16.70;12.63;;;21.50;54.50;;;15.54;68.89;96110.03;5015201;28;20029;-58
2022/04/15 08:10:27;;;;;;;14.85;13.10;;;21.60;54.20;;;15.41;69.73;96113.41;5033605;28;20021;-56
2022/04/15 08:12:54;;;;;;;17.27;13.07;;;21.50;53.90;;;15.55;69.52;96105.50;5048545;28;20452;-58
2022/04/15 08:15:32;;;;;;;16.33;12.60;;;21.50;53.80;;;15.71;68.91;96115.84;5027642;28;20049;-58
2022/04/15 08:17:59;;;;;;;17.95;14.55;;;21.50;53.90;;;15.61;68.68;96109.75;5034848;28;20420;-57
2022/04/15 08:20:25;;;;;;;18.15;13.68;;;21.40;53.80;;;15.73;68.37;96113.66;5024499;28;20368;-58
2022/04/15 08:22:50;;;;;;;19.02;14.02;;;21.50;53.60;;;15.64;67.89;96111.88;5033767;28;20036;-57
2022/04/15 08:25:16;;;;;;;18.90;14.60;;;21.50;53.40;;;15.44;68.94;96112.84;5029048;28;20045;-55
2022/04/15 08:27:42;;;;;;;18.13;14.63;;;21.50;53.00;;;15.37;68.29;96110.47;5048644;28;20490;-56
2022/04/15 08:30:08;;;;;;;18.35;13.75;;;21.60;52.80;;;15.64;68.73;96114.53;5037279;28;20037;-57
2022/04/15 08:32:37;;;;;;;20.73;14.57;;;21.60;52.80;;;15.89;67.20;96108.94;5049351;28;20035;-58
2022/04/15 08:35:06;;;;;;;19.23;14.07;;;21.70;52.70;;;15.76;67.82;96119.53;5015482;28;20025;-56
2022/04/15 08:37:33;;;;;;;19.15;14.48;;;21.80;52.30;;;15.61;67.31;96113.22;5050434;28;20026;-56
2022/04/15 08:40:00;;;;;;;16.27;13.32;;;21.90;52.50;;;16.02;66.38;96115.50;5030102;28;20029;-57
2022/04/15 08:42:34;;;;;;;18.60;13.45;;;22.00;51.80;;;16.21;65.77;96120.16;5033457;28;20103;-58
2022/04/15 08:45:07;;;;;;;19.77;13.48;;;22.10;51.50;;;16.52;65.29;96124.06;5024463;28;20504;-58
2022/04/15 08:47:38;;;;;;;19.63;13.40;;;22.30;51.40;;;16.87;64.24;96122.78;5032364;28;20299;-57
2022/04/15 08:50:12;;;;;;;18.60;13.27;;;22.50;51.30;;;17.04;63.48;96124.94;5041445;28;20092;-56
2022/04/15 08:52:37;;;;;;;16.17;13.43;;;22.80;50.80;;;17.51;62.87;96128.50;4992758;28;20049;-58
2022/04/15 08:55:04;;;;;;;17.15;13.25;;;23.30;50.50;;;17.75;61.15;96122.97;5033686;28;20025;-58
2022/04/15 08:57:30;;;;;;;17.77;13.60;;;23.70;49.70;;;17.72;61.18;96112.00;5032420;28;20549;-56
2022/04/15 09:00:00;;;;;;;18.02;13.60;;;24.10;48.70;;;18.27;59.02;96131.75;5047656;28;20364;-58
2022/04/15 09:02:35;;;;;;;17.40;13.88;;;24.60;47.90;;;18.61;59.52;96130.50;5024435;28;20025;-57
2022/04/15 09:05:06;;;;;;;20.33;12.73;;;24.80;47.70;;;19.02;56.56;96128.84;5029987;28;20511;-59
2022/04/15 09:07:34;;;;;;;16.25;13.52;;;25.20;47.00;;;19.47;56.30;96118.84;5046086;28;20491;-58
2022/04/15 09:10:02;;;;;;;16.58;13.10;;;25.60;46.50;;;19.32;56.19;96121.94;5031066;28;20108;-57
2022/04/15 09:12:29;;;;;;;14.80;12.48;;;25.80;45.90;;;19.00;56.18;96128.34;5022436;28;20025;-56
2022/04/15 09:15:09;;;;;;;18.75;12.50;;;25.80;45.20;;;19.22;55.82;96125.69;5017987;28;20087;-54
2022/04/15 09:17:36;;;;;;;16.55;12.27;;;25.70;44.90;;;19.48;54.20;96123.13;5023193;28;20025;-56
2022/04/15 09:20:09;;;;;;;15.13;12.48;;;25.70;44.70;;;19.45;54.47;96123.75;5028171;28;20021;-56
2022/04/15 09:22:36;;;;;;;;;;;25.90;44.10;;;19.61;54.84;96126.88;5013069;28;20033;-57
2022/04/15 09:25:03;;;;;;;16.17;13.07;;;25.90;44.40;;;19.60;53.83;96134.19;5048106;28;20375;-56
2022/04/15 09:27:29;;;;;;;17.38;13.85;;;26.10;43.80;;;19.44;54.76;96121.38;5040597;28;20033;-58
2022/04/15 09:29:55;;;;;;;16.17;13.07;;;26.40;42.90;;;19.72;54.04;96133.66;5050356;28;20032;-57
2022/04/15 09:32:24;;;;;;;19.92;13.48;;;26.50;42.70;;;19.52;56.21;96137.63;5013857;28;20129;-58
2022/04/15 09:35:05;;;;;;;17.35;12.90;;;26.70;42.40;;;19.76;55.32;96133.84;5013652;28;20152;-58
2022/04/15 09:37:44;;;;;;;15.45;12.38;;;27.00;42.00;;;19.87;53.66;96140.59;5031099;28;20025;-56
2022/04/15 09:40:25;;;;;;;16.20;12.55;;;27.30;41.50;;;20.13;54.98;96134.50;5039772;28;20025;-56
2022/04/15 09:42:53;;;;;;;15.20;12.32;;;27.50;41.10;;;20.33;52.48;96147.44;5049047;28;20025;-53
2022/04/15 09:45:37;;;;;;;18.23;12.63;;;27.40;41.10;;;20.11;52.21;96143.69;5026286;28;20041;-55
2022/04/15 09:48:09;;;;;;;17.25;13.20;;;27.20;40.80;;;19.93;53.49;96139.34;5012498;28;20491;-57
2022/04/15 09:50:39;;;;;;;16.00;13.27;;;26.90;40.90;;;19.76;53.08;96139.25;5029013;28;20041;-53
2022/04/15 09:53:20;;;;;;;14.50;11.85;;;27.00;40.60;;;19.97;51.86;96140.31;5014398;28;20135;-58
2022/04/15 09:55:51;;;;;;;17.43;12.10;;;27.20;40.10;;;19.09;55.25;96137.31;5030697;28;20083;-55
2022/04/15 09:58:23;;;;;;;15.38;12.00;;;27.30;39.30;;;19.52;54.59;96136.81;5030489;28;20286;-56
2022/04/15 10:00:53;;;;;;;15.90;12.48;;;27.20;39.50;;;20.28;52.77;96137.56;5031408;28;20445;-58
2022/04/15 10:03:45;;;;;;;13.95;11.82;;;27.40;39.70;;;21.07;49.99;96135.84;5029347;28;20047;-56
2022/04/15 10:06:15;;;;;;;14.20;11.23;;;27.90;39.50;;;21.26;48.94;96128.19;5030425;28;20052;-57
2022/04/15 10:08:45;;;;;;;16.10;10.90;;;28.50;38.60;;;21.47;48.14;96136.50;5043466;28;20104;-56
2022/04/15 10:11:12;;;;;;;15.38;11.93;;;28.70;38.00;;;21.56;49.16;96131.06;5017468;28;20112;-57
2022/04/15 10:13:39;;;;;;;15.10;11.38;;;28.60;38.10;;;21.57;48.76;96134.56;5027600;28;20435;-56
2022/04/15 10:16:07;;;;;;;19.13;11.23;;;28.40;38.00;;;21.44;47.79;96133.63;5030317;28;20022;-53